sensor_id;sensor_type;location;lat;lon;timestamp;temperature;humidity
78541;SHT31;67835;51.968;5.646;2023-07-29T00:00:13;21.4;66.9
78541;SHT31;67835;51.968;5.646;2023-07-29T00:02:42;21.5;66.5
78541;SHT31;67835;51.968;5.646;2023-07-29T00:05:11;21.5;66.6
78541;SHT31;67835;51.968;5.646;2023-07-29T00:07:40;21.5;66.2
78541;SHT31;67835;51.968;5.646;2023-07-29T00:10:09;21.4;66.2
78541;SHT31;67835;51.968;5.646;2023-07-29T00:12:38;21.4;65.8
78541;SHT31;67835;51.968;5.646;2023-07-29T00:15:08;21.4;65.5
78541;SHT31;67835;51.968;5.646;2023-07-29T00:17:37;21.4;66.3
78541;SHT31;67835;51.968;5.646;2023-07-29T00:20:08;21.3;66.3
78541;SHT31;67835;51.968;5.646;2023-07-29T00:22:36;21.3;66.2
78541;SHT31;67835;51.968;5.646;2023-07-29T00:25:07;21.3;66.6
78541;SHT31;67835;51.968;5.646;2023-07-29T00:27:35;21.2;66.8
78541;SHT31;67835;51.968;5.646;2023-07-29T00:30:05;21.2;66.4
78541;SHT31;67835;51.968;5.646;2023-07-29T00:32:35;21.1;67.2
78541;SHT31;67835;51.968;5.646;2023-07-29T00:35:04;21.1;67.3
78541;SHT31;67835;51.968;5.646;2023-07-29T00:37:34;21.0;67.0
78541;SHT31;67835;51.968;5.646;2023-07-29T00:40:04;21.0;67.0
78541;SHT31;67835;51.968;5.646;2023-07-29T00:42:39;20.9;66.9
78541;SHT31;67835;51.968;5.646;2023-07-29T00:45:10;20.9;67.7
78541;SHT31;67835;51.968;5.646;2023-07-29T00:47:40;20.9;67.2
78541;SHT31;67835;51.968;5.646;2023-07-29T00:50:12;20.8;67.4
78541;SHT31;67835;51.968;5.646;2023-07-29T00:52:41;20.8;67.2
78541;SHT31;67835;51.968;5.646;2023-07-29T00:55:10;20.8;67.3
78541;SHT31;67835;51.968;5.646;2023-07-29T00:57:39;20.8;68.8
78541;SHT31;67835;51.968;5.646;2023-07-29T01:00:11;20.7;69.5
78541;SHT31;67835;51.968;5.646;2023-07-29T01:02:42;20.7;69.9
78541;SHT31;67835;51.968;5.646;2023-07-29T01:05:14;20.8;69.7
78541;SHT31;67835;51.968;5.646;2023-07-29T01:07:51;20.8;69.5
78541;SHT31;67835;51.968;5.646;2023-07-29T01:10:31;20.8;69.7
78541;SHT31;67835;51.968;5.646;2023-07-29T01:13:13;20.8;69.8
78541;SHT31;67835;51.968;5.646;2023-07-29T01:15:50;20.8;69.8
78541;SHT31;67835;51.968;5.646;2023-07-29T01:18:26;20.8;69.9
78541;SHT31;67835;51.968;5.646;2023-07-29T01:20:59;20.8;69.8
78541;SHT31;67835;51.968;5.646;2023-07-29T01:23:31;20.8;69.9
78541;SHT31;67835;51.968;5.646;2023-07-29T01:26:01;20.8;70.0
78541;SHT31;67835;51.968;5.646;2023-07-29T01:28:30;20.8;70.1
78541;SHT31;67835;51.968;5.646;2023-07-29T01:31:06;20.8;70.2
78541;SHT31;67835;51.968;5.646;2023-07-29T01:33:40;20.8;70.5
78541;SHT31;67835;51.968;5.646;2023-07-29T01:36:18;20.9;71.0
78541;SHT31;67835;51.968;5.646;2023-07-29T01:38:51;20.9;71.3
78541;SHT31;67835;51.968;5.646;2023-07-29T01:41:21;20.9;71.5
78541;SHT31;67835;51.968;5.646;2023-07-29T01:43:52;20.9;71.8
78541;SHT31;67835;51.968;5.646;2023-07-29T01:46:21;21.0;71.9
78541;SHT31;67835;51.968;5.646;2023-07-29T01:48:50;21.0;71.9
78541;SHT31;67835;51.968;5.646;2023-07-29T01:51:19;21.0;71.9
78541;SHT31;67835;51.968;5.646;2023-07-29T01:53:49;21.0;71.7
78541;SHT31;67835;51.968;5.646;2023-07-29T01:56:19;21.0;71.9
78541;SHT31;67835;51.968;5.646;2023-07-29T01:58:47;21.0;71.7
78541;SHT31;67835;51.968;5.646;2023-07-29T02:01:18;21.0;71.4
78541;SHT31;67835;51.968;5.646;2023-07-29T02:03:47;21.1;71.5
78541;SHT31;67835;51.968;5.646;2023-07-29T02:06:21;21.1;71.6
78541;SHT31;67835;51.968;5.646;2023-07-29T02:08:50;21.1;71.5
78541;SHT31;67835;51.968;5.646;2023-07-29T02:11:19;21.1;71.5
78541;SHT31;67835;51.968;5.646;2023-07-29T02:13:54;21.0;71.6
78541;SHT31;67835;51.968;5.646;2023-07-29T02:16:23;21.0;71.8
78541;SHT31;67835;51.968;5.646;2023-07-29T02:18:51;21.0;71.9
78541;SHT31;67835;51.968;5.646;2023-07-29T02:21:20;21.0;72.0
78541;SHT31;67835;51.968;5.646;2023-07-29T02:23:49;21.0;72.0
78541;SHT31;67835;51.968;5.646;2023-07-29T02:26:18;21.0;72.3
78541;SHT31;67835;51.968;5.646;2023-07-29T02:28:46;21.0;72.4
78541;SHT31;67835;51.968;5.646;2023-07-29T02:31:20;21.0;72.5
78541;SHT31;67835;51.968;5.646;2023-07-29T02:33:50;21.0;72.6
78541;SHT31;67835;51.968;5.646;2023-07-29T02:36:19;21.0;72.5
78541;SHT31;67835;51.968;5.646;2023-07-29T02:38:47;21.0;72.4
78541;SHT31;67835;51.968;5.646;2023-07-29T02:41:16;21.0;72.3
78541;SHT31;67835;51.968;5.646;2023-07-29T02:43:48;21.0;71.9
78541;SHT31;67835;51.968;5.646;2023-07-29T02:46:18;21.0;71.4
78541;SHT31;67835;51.968;5.646;2023-07-29T02:48:46;21.0;71.0
78541;SHT31;67835;51.968;5.646;2023-07-29T02:51:15;21.0;70.9
78541;SHT31;67835;51.968;5.646;2023-07-29T02:53:43;21.0;70.6
78541;SHT31;67835;51.968;5.646;2023-07-29T02:56:13;21.0;70.4
78541;SHT31;67835;51.968;5.646;2023-07-29T02:58:42;20.9;70.3
78541;SHT31;67835;51.968;5.646;2023-07-29T03:01:11;20.9;70.2
78541;SHT31;67835;51.968;5.646;2023-07-29T03:03:39;20.9;70.2
78541;SHT31;67835;51.968;5.646;2023-07-29T03:06:10;20.9;70.2
78541;SHT31;67835;51.968;5.646;2023-07-29T03:08:39;20.8;70.1
78541;SHT31;67835;51.968;5.646;2023-07-29T03:11:10;20.8;70.2
78541;SHT31;67835;51.968;5.646;2023-07-29T03:13:39;20.8;70.1
78541;SHT31;67835;51.968;5.646;2023-07-29T03:16:09;20.8;69.9
78541;SHT31;67835;51.968;5.646;2023-07-29T03:18:39;20.8;69.8
78541;SHT31;67835;51.968;5.646;2023-07-29T03:21:10;20.8;69.8
78541;SHT31;67835;51.968;5.646;2023-07-29T03:23:40;20.7;69.7
78541;SHT31;67835;51.968;5.646;2023-07-29T03:26:09;20.7;69.5
78541;SHT31;67835;51.968;5.646;2023-07-29T03:28:40;20.7;69.3
78541;SHT31;67835;51.968;5.646;2023-07-29T03:31:10;20.7;69.4
78541;SHT31;67835;51.968;5.646;2023-07-29T03:33:39;20.7;69.3
78541;SHT31;67835;51.968;5.646;2023-07-29T03:36:08;20.6;69.2
78541;SHT31;67835;51.968;5.646;2023-07-29T03:38:38;20.6;69.3
78541;SHT31;67835;51.968;5.646;2023-07-29T03:41:09;20.6;69.4
78541;SHT31;67835;51.968;5.646;2023-07-29T03:43:37;20.6;69.4
78541;SHT31;67835;51.968;5.646;2023-07-29T03:46:06;20.6;69.4
78541;SHT31;67835;51.968;5.646;2023-07-29T03:48:34;20.6;69.3
78541;SHT31;67835;51.968;5.646;2023-07-29T03:51:06;20.6;69.1
78541;SHT31;67835;51.968;5.646;2023-07-29T03:53:35;20.5;69.0
78541;SHT31;67835;51.968;5.646;2023-07-29T03:56:04;20.5;68.8
78541;SHT31;67835;51.968;5.646;2023-07-29T03:58:33;20.5;68.7
78541;SHT31;67835;51.968;5.646;2023-07-29T04:01:02;20.5;68.4
78541;SHT31;67835;51.968;5.646;2023-07-29T04:03:31;20.4;68.3
78541;SHT31;67835;51.968;5.646;2023-07-29T04:06:00;20.4;67.9
78541;SHT31;67835;51.968;5.646;2023-07-29T04:08:29;20.4;67.7
78541;SHT31;67835;51.968;5.646;2023-07-29T04:10:58;20.3;67.4
78541;SHT31;67835;51.968;5.646;2023-07-29T04:13:26;20.3;67.2
78541;SHT31;67835;51.968;5.646;2023-07-29T04:15:55;20.3;67.2
78541;SHT31;67835;51.968;5.646;2023-07-29T04:18:24;20.2;67.4
78541;SHT31;67835;51.968;5.646;2023-07-29T04:20:53;20.2;67.2
78541;SHT31;67835;51.968;5.646;2023-07-29T04:23:21;20.2;67.3
78541;SHT31;67835;51.968;5.646;2023-07-29T04:25:50;20.2;67.4
78541;SHT31;67835;51.968;5.646;2023-07-29T04:28:18;20.1;67.4
78541;SHT31;67835;51.968;5.646;2023-07-29T04:30:47;20.1;67.6
78541;SHT31;67835;51.968;5.646;2023-07-29T04:33:15;20.1;67.5
78541;SHT31;67835;51.968;5.646;2023-07-29T04:35:43;20.1;68.0
78541;SHT31;67835;51.968;5.646;2023-07-29T04:38:12;20.1;67.8
78541;SHT31;67835;51.968;5.646;2023-07-29T04:40:41;20.1;67.9
78541;SHT31;67835;51.968;5.646;2023-07-29T04:43:09;20.1;68.1
78541;SHT31;67835;51.968;5.646;2023-07-29T04:45:42;20.1;68.3
78541;SHT31;67835;51.968;5.646;2023-07-29T04:48:11;20.1;68.4
78541;SHT31;67835;51.968;5.646;2023-07-29T04:50:41;20.1;68.4
78541;SHT31;67835;51.968;5.646;2023-07-29T04:53:12;20.1;68.4
78541;SHT31;67835;51.968;5.646;2023-07-29T04:55:42;20.1;68.7
78541;SHT31;67835;51.968;5.646;2023-07-29T04:58:11;20.1;68.6
78541;SHT31;67835;51.968;5.646;2023-07-29T05:00:39;20.1;68.2
78541;SHT31;67835;51.968;5.646;2023-07-29T05:03:08;20.1;68.2
78541;SHT31;67835;51.968;5.646;2023-07-29T05:05:37;20.1;67.9
78541;SHT31;67835;51.968;5.646;2023-07-29T05:08:05;20.1;67.8
78541;SHT31;67835;51.968;5.646;2023-07-29T05:10:34;20.1;67.7
78541;SHT31;67835;51.968;5.646;2023-07-29T05:13:03;20.1;67.9
78541;SHT31;67835;51.968;5.646;2023-07-29T05:15:31;20.1;67.7
78541;SHT31;67835;51.968;5.646;2023-07-29T05:17:59;20.1;68.0
78541;SHT31;67835;51.968;5.646;2023-07-29T05:20:28;20.1;67.7
78541;SHT31;67835;51.968;5.646;2023-07-29T05:22:56;20.1;67.8
78541;SHT31;67835;51.968;5.646;2023-07-29T05:25:25;20.1;67.9
78541;SHT31;67835;51.968;5.646;2023-07-29T05:27:53;20.1;67.8
78541;SHT31;67835;51.968;5.646;2023-07-29T05:30:22;20.2;67.3
78541;SHT31;67835;51.968;5.646;2023-07-29T05:32:53;20.2;67.5
78541;SHT31;67835;51.968;5.646;2023-07-29T05:35:22;20.2;67.3
78541;SHT31;67835;51.968;5.646;2023-07-29T05:37:51;20.2;67.6
78541;SHT31;67835;51.968;5.646;2023-07-29T05:40:20;20.2;67.6
78541;SHT31;67835;51.968;5.646;2023-07-29T05:42:49;20.2;67.5
78541;SHT31;67835;51.968;5.646;2023-07-29T05:45:17;20.2;67.5
78541;SHT31;67835;51.968;5.646;2023-07-29T05:47:46;20.2;67.6
78541;SHT31;67835;51.968;5.646;2023-07-29T05:50:17;20.2;67.8
78541;SHT31;67835;51.968;5.646;2023-07-29T05:52:47;20.3;67.7
78541;SHT31;67835;51.968;5.646;2023-07-29T05:55:16;20.3;67.8
78541;SHT31;67835;51.968;5.646;2023-07-29T05:57:44;20.3;67.8
78541;SHT31;67835;51.968;5.646;2023-07-29T06:00:14;20.3;67.4
78541;SHT31;67835;51.968;5.646;2023-07-29T06:02:43;20.4;67.6
78541;SHT31;67835;51.968;5.646;2023-07-29T06:05:11;20.4;67.8
78541;SHT31;67835;51.968;5.646;2023-07-29T06:07:40;20.4;67.4
78541;SHT31;67835;51.968;5.646;2023-07-29T06:10:13;20.5;67.3
78541;SHT31;67835;51.968;5.646;2023-07-29T06:12:44;20.5;67.3
78541;SHT31;67835;51.968;5.646;2023-07-29T06:15:12;20.6;67.0
78541;SHT31;67835;51.968;5.646;2023-07-29T06:17:42;20.7;66.6
78541;SHT31;67835;51.968;5.646;2023-07-29T06:20:11;20.7;67.4
78541;SHT31;67835;51.968;5.646;2023-07-29T06:22:40;20.8;66.7
78541;SHT31;67835;51.968;5.646;2023-07-29T06:25:10;20.9;66.5
78541;SHT31;67835;51.968;5.646;2023-07-29T06:27:38;21.0;66.8
78541;SHT31;67835;51.968;5.646;2023-07-29T06:30:08;21.1;66.2
78541;SHT31;67835;51.968;5.646;2023-07-29T06:32:36;21.2;66.0
78541;SHT31;67835;51.968;5.646;2023-07-29T06:35:06;21.2;65.7
78541;SHT31;67835;51.968;5.646;2023-07-29T06:37:35;21.3;65.4
78541;SHT31;67835;51.968;5.646;2023-07-29T06:40:05;21.5;64.6
78541;SHT31;67835;51.968;5.646;2023-07-29T06:42:34;21.6;64.4
78541;SHT31;67835;51.968;5.646;2023-07-29T06:45:05;21.7;63.8
78541;SHT31;67835;51.968;5.646;2023-07-29T06:47:33;21.8;64.1
78541;SHT31;67835;51.968;5.646;2023-07-29T06:50:02;22.0;63.3
78541;SHT31;67835;51.968;5.646;2023-07-29T06:52:30;22.2;63.2
78541;SHT31;67835;51.968;5.646;2023-07-29T06:54:59;22.3;62.3
78541;SHT31;67835;51.968;5.646;2023-07-29T06:57:29;22.4;61.5
78541;SHT31;67835;51.968;5.646;2023-07-29T06:59:58;22.5;61.6
78541;SHT31;67835;51.968;5.646;2023-07-29T07:02:27;22.5;61.6
78541;SHT31;67835;51.968;5.646;2023-07-29T07:04:56;22.6;61.8
78541;SHT31;67835;51.968;5.646;2023-07-29T07:07:24;22.6;61.9
78541;SHT31;67835;51.968;5.646;2023-07-29T07:09:54;22.7;63.1
78541;SHT31;67835;51.968;5.646;2023-07-29T07:12:22;22.8;61.4
78541;SHT31;67835;51.968;5.646;2023-07-29T07:14:51;22.9;60.8
78541;SHT31;67835;51.968;5.646;2023-07-29T07:17:20;23.0;60.2
78541;SHT31;67835;51.968;5.646;2023-07-29T07:19:48;23.0;59.9
78541;SHT31;67835;51.968;5.646;2023-07-29T07:22:17;23.1;60.0
78541;SHT31;67835;51.968;5.646;2023-07-29T07:24:47;23.1;60.3
78541;SHT31;67835;51.968;5.646;2023-07-29T07:27:15;23.1;60.1
78541;SHT31;67835;51.968;5.646;2023-07-29T07:29:45;23.1;60.1
78541;SHT31;67835;51.968;5.646;2023-07-29T07:32:13;23.1;60.6
78541;SHT31;67835;51.968;5.646;2023-07-29T07:34:42;23.1;61.2
78541;SHT31;67835;51.968;5.646;2023-07-29T07:37:10;23.1;60.8
78541;SHT31;67835;51.968;5.646;2023-07-29T07:39:43;23.2;60.7
78541;SHT31;67835;51.968;5.646;2023-07-29T07:42:16;23.2;60.0
78541;SHT31;67835;51.968;5.646;2023-07-29T07:44:47;23.2;60.7
78541;SHT31;67835;51.968;5.646;2023-07-29T07:47:17;23.3;60.3
78541;SHT31;67835;51.968;5.646;2023-07-29T07:49:46;23.3;60.0
78541;SHT31;67835;51.968;5.646;2023-07-29T07:52:17;23.3;60.1
78541;SHT31;67835;51.968;5.646;2023-07-29T07:54:54;23.4;60.3
78541;SHT31;67835;51.968;5.646;2023-07-29T07:57:23;23.5;59.5
78541;SHT31;67835;51.968;5.646;2023-07-29T07:59:51;23.6;59.6
78541;SHT31;67835;51.968;5.646;2023-07-29T08:02:20;23.7;59.7
78541;SHT31;67835;51.968;5.646;2023-07-29T08:04:49;23.7;59.0
78541;SHT31;67835;51.968;5.646;2023-07-29T08:07:20;23.8;59.1
78541;SHT31;67835;51.968;5.646;2023-07-29T08:09:51;23.9;58.7
78541;SHT31;67835;51.968;5.646;2023-07-29T08:12:21;23.9;58.1
78541;SHT31;67835;51.968;5.646;2023-07-29T08:14:50;24.0;58.3
78541;SHT31;67835;51.968;5.646;2023-07-29T08:17:18;24.0;58.6
78541;SHT31;67835;51.968;5.646;2023-07-29T08:19:48;24.0;57.9
78541;SHT31;67835;51.968;5.646;2023-07-29T08:22:17;24.0;58.5
78541;SHT31;67835;51.968;5.646;2023-07-29T08:24:47;24.0;58.8
78541;SHT31;67835;51.968;5.646;2023-07-29T08:27:15;24.1;58.7
78541;SHT31;67835;51.968;5.646;2023-07-29T08:29:44;24.2;58.8
78541;SHT31;67835;51.968;5.646;2023-07-29T08:32:13;24.3;58.2
78541;SHT31;67835;51.968;5.646;2023-07-29T08:34:42;24.4;57.6
78541;SHT31;67835;51.968;5.646;2023-07-29T08:37:11;24.5;56.3
78541;SHT31;67835;51.968;5.646;2023-07-29T08:39:40;24.7;55.7
78541;SHT31;67835;51.968;5.646;2023-07-29T08:42:11;24.7;56.2
78541;SHT31;67835;51.968;5.646;2023-07-29T08:44:43;24.8;56.6
78541;SHT31;67835;51.968;5.646;2023-07-29T08:47:12;24.8;56.1
78541;SHT31;67835;51.968;5.646;2023-07-29T08:49:42;24.9;55.6
78541;SHT31;67835;51.968;5.646;2023-07-29T08:52:12;24.9;55.6
78541;SHT31;67835;51.968;5.646;2023-07-29T08:54:42;25.0;55.5
78541;SHT31;67835;51.968;5.646;2023-07-29T08:57:13;25.0;54.5
78541;SHT31;67835;51.968;5.646;2023-07-29T08:59:44;25.0;54.2
78541;SHT31;67835;51.968;5.646;2023-07-29T09:02:12;24.9;54.4
78541;SHT31;67835;51.968;5.646;2023-07-29T09:04:42;24.9;54.4
78541;SHT31;67835;51.968;5.646;2023-07-29T09:07:14;24.8;54.5
78541;SHT31;67835;51.968;5.646;2023-07-29T09:09:43;24.7;54.9
78541;SHT31;67835;51.968;5.646;2023-07-29T09:12:12;24.7;55.2
78541;SHT31;67835;51.968;5.646;2023-07-29T09:14:42;24.6;54.8
78541;SHT31;67835;51.968;5.646;2023-07-29T09:17:11;24.6;56.4
78541;SHT31;67835;51.968;5.646;2023-07-29T09:19:39;24.6;55.3
78541;SHT31;67835;51.968;5.646;2023-07-29T09:22:20;24.6;56.0
78541;SHT31;67835;51.968;5.646;2023-07-29T09:24:50;24.7;55.5
78541;SHT31;67835;51.968;5.646;2023-07-29T09:27:26;24.9;55.0
78541;SHT31;67835;51.968;5.646;2023-07-29T09:29:58;25.2;54.4
78541;SHT31;67835;51.968;5.646;2023-07-29T09:32:31;25.8;54.0
78541;SHT31;67835;51.968;5.646;2023-07-29T09:34:59;26.5;51.4
78541;SHT31;67835;51.968;5.646;2023-07-29T09:37:28;27.1;51.0
78541;SHT31;67835;51.968;5.646;2023-07-29T09:39:58;27.7;49.7
78541;SHT31;67835;51.968;5.646;2023-07-29T09:42:26;28.4;46.1
78541;SHT31;67835;51.968;5.646;2023-07-29T09:44:56;28.8;45.5
78541;SHT31;67835;51.968;5.646;2023-07-29T09:47:25;29.1;44.4
78541;SHT31;67835;51.968;5.646;2023-07-29T09:49:55;29.3;43.2
78541;SHT31;67835;51.968;5.646;2023-07-29T09:52:24;29.4;43.6
78541;SHT31;67835;51.968;5.646;2023-07-29T09:54:54;29.4;44.0
78541;SHT31;67835;51.968;5.646;2023-07-29T09:57:25;29.4;45.2
78541;SHT31;67835;51.968;5.646;2023-07-29T09:59:56;29.5;43.8
78541;SHT31;67835;51.968;5.646;2023-07-29T10:02:26;29.7;43.1
78541;SHT31;67835;51.968;5.646;2023-07-29T10:04:59;29.8;43.2
78541;SHT31;67835;51.968;5.646;2023-07-29T10:07:30;29.9;42.3
78541;SHT31;67835;51.968;5.646;2023-07-29T10:10:02;30.0;43.8
78541;SHT31;67835;51.968;5.646;2023-07-29T10:12:33;30.0;42.5
78541;SHT31;67835;51.968;5.646;2023-07-29T10:15:05;30.2;42.5
78541;SHT31;67835;51.968;5.646;2023-07-29T10:17:36;30.5;43.2
78541;SHT31;67835;51.968;5.646;2023-07-29T10:20:08;30.8;41.5
78541;SHT31;67835;51.968;5.646;2023-07-29T10:22:40;31.0;40.7
78541;SHT31;67835;51.968;5.646;2023-07-29T10:25:18;31.1;40.6
78541;SHT31;67835;51.968;5.646;2023-07-29T10:27:51;31.1;40.4
78541;SHT31;67835;51.968;5.646;2023-07-29T10:30:21;31.0;40.2
78541;SHT31;67835;51.968;5.646;2023-07-29T10:32:53;30.8;40.2
78541;SHT31;67835;51.968;5.646;2023-07-29T10:35:24;30.5;40.1
78541;SHT31;67835;51.968;5.646;2023-07-29T10:37:53;30.2;41.2
78541;SHT31;67835;51.968;5.646;2023-07-29T10:40:22;29.8;41.5
78541;SHT31;67835;51.968;5.646;2023-07-29T10:43:12;29.5;43.0
78541;SHT31;67835;51.968;5.646;2023-07-29T10:45:42;29.2;43.3
78541;SHT31;67835;51.968;5.646;2023-07-29T10:48:13;29.0;44.1
78541;SHT31;67835;51.968;5.646;2023-07-29T10:50:47;28.8;44.5
78541;SHT31;67835;51.968;5.646;2023-07-29T10:53:16;28.7;44.5
78541;SHT31;67835;51.968;5.646;2023-07-29T10:55:45;28.5;44.2
78541;SHT31;67835;51.968;5.646;2023-07-29T10:58:15;28.3;45.4
78541;SHT31;67835;51.968;5.646;2023-07-29T11:00:46;28.1;45.4
78541;SHT31;67835;51.968;5.646;2023-07-29T11:03:14;27.9;46.5
78541;SHT31;67835;51.968;5.646;2023-07-29T11:05:48;27.7;47.1
78541;SHT31;67835;51.968;5.646;2023-07-29T11:08:18;27.5;47.8
78541;SHT31;67835;51.968;5.646;2023-07-29T11:11:01;27.4;47.8
78541;SHT31;67835;51.968;5.646;2023-07-29T11:13:31;27.2;47.8
78541;SHT31;67835;51.968;5.646;2023-07-29T11:16:01;27.1;48.6
78541;SHT31;67835;51.968;5.646;2023-07-29T11:18:32;27.0;49.7
78541;SHT31;67835;51.968;5.646;2023-07-29T11:21:02;26.8;49.7
78541;SHT31;67835;51.968;5.646;2023-07-29T11:23:34;26.6;49.5
78541;SHT31;67835;51.968;5.646;2023-07-29T11:26:04;26.5;50.0
78541;SHT31;67835;51.968;5.646;2023-07-29T11:28:38;26.3;52.1
78541;SHT31;67835;51.968;5.646;2023-07-29T11:31:07;26.1;53.8
78541;SHT31;67835;51.968;5.646;2023-07-29T11:33:39;25.9;54.2
78541;SHT31;67835;51.968;5.646;2023-07-29T11:36:20;25.6;54.2
78541;SHT31;67835;51.968;5.646;2023-07-29T11:38:50;25.3;55.4
78541;SHT31;67835;51.968;5.646;2023-07-29T11:41:21;25.1;56.6
78541;SHT31;67835;51.968;5.646;2023-07-29T11:43:51;24.9;58.8
78541;SHT31;67835;51.968;5.646;2023-07-29T11:46:22;24.7;58.8
78541;SHT31;67835;51.968;5.646;2023-07-29T11:48:54;24.5;59.2
78541;SHT31;67835;51.968;5.646;2023-07-29T11:51:25;24.4;59.2
78541;SHT31;67835;51.968;5.646;2023-07-29T11:53:54;24.2;60.7
78541;SHT31;67835;51.968;5.646;2023-07-29T11:56:24;24.0;61.6
78541;SHT31;67835;51.968;5.646;2023-07-29T11:58:53;23.9;62.7
78541;SHT31;67835;51.968;5.646;2023-07-29T12:01:23;23.7;63.4
78541;SHT31;67835;51.968;5.646;2023-07-29T12:03:52;23.5;64.9
78541;SHT31;67835;51.968;5.646;2023-07-29T12:06:22;23.4;64.7
78541;SHT31;67835;51.968;5.646;2023-07-29T12:08:52;23.3;67.1
78541;SHT31;67835;51.968;5.646;2023-07-29T12:11:21;23.2;67.7
78541;SHT31;67835;51.968;5.646;2023-07-29T12:13:53;23.1;68.0
78541;SHT31;67835;51.968;5.646;2023-07-29T12:16:22;23.1;67.6
78541;SHT31;67835;51.968;5.646;2023-07-29T12:18:52;23.1;67.2
78541;SHT31;67835;51.968;5.646;2023-07-29T12:21:20;23.1;66.8
78541;SHT31;67835;51.968;5.646;2023-07-29T12:23:50;23.0;66.6
78541;SHT31;67835;51.968;5.646;2023-07-29T12:26:19;23.0;67.0
78541;SHT31;67835;51.968;5.646;2023-07-29T12:28:48;23.0;66.1
78541;SHT31;67835;51.968;5.646;2023-07-29T12:31:17;23.0;67.7
78541;SHT31;67835;51.968;5.646;2023-07-29T12:33:45;23.1;66.5
78541;SHT31;67835;51.968;5.646;2023-07-29T12:36:14;23.1;68.2
78541;SHT31;67835;51.968;5.646;2023-07-29T12:38:45;23.2;66.0
78541;SHT31;67835;51.968;5.646;2023-07-29T12:41:13;23.4;67.3
78541;SHT31;67835;51.968;5.646;2023-07-29T12:43:41;23.6;63.9
78541;SHT31;67835;51.968;5.646;2023-07-29T12:46:10;23.9;64.9
78541;SHT31;67835;51.968;5.646;2023-07-29T12:48:38;24.1;63.5
78541;SHT31;67835;51.968;5.646;2023-07-29T12:51:07;24.3;63.3
78541;SHT31;67835;51.968;5.646;2023-07-29T12:53:35;24.5;60.9
78541;SHT31;67835;51.968;5.646;2023-07-29T12:56:05;24.6;61.7
78541;SHT31;67835;51.968;5.646;2023-07-29T12:58:35;24.8;60.6
78541;SHT31;67835;51.968;5.646;2023-07-29T13:01:03;24.9;60.5
78541;SHT31;67835;51.968;5.646;2023-07-29T13:03:34;25.1;60.2
78541;SHT31;67835;51.968;5.646;2023-07-29T13:06:02;25.2;59.6
78541;SHT31;67835;51.968;5.646;2023-07-29T13:08:34;25.3;58.9
78541;SHT31;67835;51.968;5.646;2023-07-29T13:11:03;25.4;58.6
78541;SHT31;67835;51.968;5.646;2023-07-29T13:13:32;25.5;58.2
78541;SHT31;67835;51.968;5.646;2023-07-29T13:16:01;25.5;58.5
78541;SHT31;67835;51.968;5.646;2023-07-29T13:18:29;25.6;59.7
78541;SHT31;67835;51.968;5.646;2023-07-29T13:21:00;25.6;58.4
78541;SHT31;67835;51.968;5.646;2023-07-29T13:23:29;25.7;58.0
78541;SHT31;67835;51.968;5.646;2023-07-29T13:25:58;25.7;57.8
78541;SHT31;67835;51.968;5.646;2023-07-29T13:28:27;25.7;60.1
78541;SHT31;67835;51.968;5.646;2023-07-29T13:30:58;25.7;61.0
78541;SHT31;67835;51.968;5.646;2023-07-29T13:33:28;25.7;60.9
78541;SHT31;67835;51.968;5.646;2023-07-29T13:36:00;25.7;59.9
78541;SHT31;67835;51.968;5.646;2023-07-29T13:38:29;25.7;60.1
78541;SHT31;67835;51.968;5.646;2023-07-29T13:40:58;25.8;61.1
78541;SHT31;67835;51.968;5.646;2023-07-29T13:43:26;25.9;60.0
78541;SHT31;67835;51.968;5.646;2023-07-29T13:45:55;26.1;57.8
78541;SHT31;67835;51.968;5.646;2023-07-29T13:48:23;26.3;56.4
78541;SHT31;67835;51.968;5.646;2023-07-29T13:50:52;26.4;55.6
78541;SHT31;67835;51.968;5.646;2023-07-29T13:53:22;26.5;55.1
78541;SHT31;67835;51.968;5.646;2023-07-29T13:55:52;26.5;54.5
78541;SHT31;67835;51.968;5.646;2023-07-29T13:58:21;26.5;54.2
78541;SHT31;67835;51.968;5.646;2023-07-29T14:00:49;26.6;54.7
78541;SHT31;67835;51.968;5.646;2023-07-29T14:03:17;26.6;54.6
78541;SHT31;67835;51.968;5.646;2023-07-29T14:05:46;26.7;54.7
78541;SHT31;67835;51.968;5.646;2023-07-29T14:08:15;26.7;53.8
78541;SHT31;67835;51.968;5.646;2023-07-29T14:10:43;26.8;53.2
78541;SHT31;67835;51.968;5.646;2023-07-29T14:13:12;26.8;53.5
78541;SHT31;67835;51.968;5.646;2023-07-29T14:15:42;26.8;53.9
78541;SHT31;67835;51.968;5.646;2023-07-29T14:18:13;26.8;53.5
78541;SHT31;67835;51.968;5.646;2023-07-29T14:20:41;26.8;53.2
78541;SHT31;67835;51.968;5.646;2023-07-29T14:23:10;26.8;53.9
78541;SHT31;67835;51.968;5.646;2023-07-29T14:25:38;26.8;53.7
78541;SHT31;67835;51.968;5.646;2023-07-29T14:28:06;26.8;55.0
78541;SHT31;67835;51.968;5.646;2023-07-29T14:30:36;26.9;55.4
78541;SHT31;67835;51.968;5.646;2023-07-29T14:33:04;26.9;55.5
78541;SHT31;67835;51.968;5.646;2023-07-29T14:35:33;26.9;56.9
78541;SHT31;67835;51.968;5.646;2023-07-29T14:38:01;27.0;54.0
78541;SHT31;67835;51.968;5.646;2023-07-29T14:40:30;27.1;53.1
78541;SHT31;67835;51.968;5.646;2023-07-29T14:42:58;27.2;52.4
78541;SHT31;67835;51.968;5.646;2023-07-29T14:45:27;27.3;53.7
78541;SHT31;67835;51.968;5.646;2023-07-29T14:47:55;27.3;54.0
78541;SHT31;67835;51.968;5.646;2023-07-29T14:50:24;27.4;52.2
78541;SHT31;67835;51.968;5.646;2023-07-29T14:52:53;27.5;52.0
78541;SHT31;67835;51.968;5.646;2023-07-29T14:55:22;27.5;53.0
78541;SHT31;67835;51.968;5.646;2023-07-29T14:57:50;27.6;52.8
78541;SHT31;67835;51.968;5.646;2023-07-29T15:00:18;27.7;52.0
78541;SHT31;67835;51.968;5.646;2023-07-29T15:02:50;27.9;49.5
78541;SHT31;67835;51.968;5.646;2023-07-29T15:05:18;28.0;48.8
78541;SHT31;67835;51.968;5.646;2023-07-29T15:07:48;28.2;46.5
78541;SHT31;67835;51.968;5.646;2023-07-29T15:10:17;28.3;44.7
78541;SHT31;67835;51.968;5.646;2023-07-29T15:12:47;28.4;44.5
78541;SHT31;67835;51.968;5.646;2023-07-29T15:15:15;28.5;44.7
78541;SHT31;67835;51.968;5.646;2023-07-29T15:17:44;28.6;45.5
78541;SHT31;67835;51.968;5.646;2023-07-29T15:20:13;28.6;44.3
78541;SHT31;67835;51.968;5.646;2023-07-29T15:22:41;28.7;44.2
78541;SHT31;67835;51.968;5.646;2023-07-29T15:25:10;28.7;44.4
78541;SHT31;67835;51.968;5.646;2023-07-29T15:27:39;28.7;45.6
78541;SHT31;67835;51.968;5.646;2023-07-29T15:30:09;28.7;46.2
78541;SHT31;67835;51.968;5.646;2023-07-29T15:32:38;28.7;43.0
78541;SHT31;67835;51.968;5.646;2023-07-29T15:35:09;28.7;43.5
78541;SHT31;67835;51.968;5.646;2023-07-29T15:37:38;28.6;44.8
78541;SHT31;67835;51.968;5.646;2023-07-29T15:40:11;28.5;44.3
78541;SHT31;67835;51.968;5.646;2023-07-29T15:42:39;28.5;44.5
78541;SHT31;67835;51.968;5.646;2023-07-29T15:45:09;28.5;45.1
78541;SHT31;67835;51.968;5.646;2023-07-29T15:47:38;28.4;45.5
78541;SHT31;67835;51.968;5.646;2023-07-29T15:50:08;28.5;45.8
78541;SHT31;67835;51.968;5.646;2023-07-29T15:52:37;28.5;44.9
78541;SHT31;67835;51.968;5.646;2023-07-29T15:55:10;28.5;45.6
78541;SHT31;67835;51.968;5.646;2023-07-29T15:57:38;28.5;46.2
78541;SHT31;67835;51.968;5.646;2023-07-29T16:00:08;28.4;46.0
78541;SHT31;67835;51.968;5.646;2023-07-29T16:02:36;28.4;45.5
78541;SHT31;67835;51.968;5.646;2023-07-29T16:05:07;28.3;46.4
78541;SHT31;67835;51.968;5.646;2023-07-29T16:07:35;28.3;46.5
78541;SHT31;67835;51.968;5.646;2023-07-29T16:10:05;28.4;46.0
78541;SHT31;67835;51.968;5.646;2023-07-29T16:12:34;28.4;45.0
78541;SHT31;67835;51.968;5.646;2023-07-29T16:15:06;28.4;45.2
78541;SHT31;67835;51.968;5.646;2023-07-29T16:17:35;28.3;45.1